createdAt,value
2023-03-25T00:00:14.509Z,100.00
2023-03-25T00:05:22.026Z,100.00
2023-03-25T00:10:27.158Z,100.00
2023-03-25T00:15:35.617Z,100.00
2023-03-25T00:20:41.077Z,100.00
2023-03-25T00:25:46.282Z,100.00
2023-03-25T00:30:54.040Z,100.00
2023-03-25T00:36:00.664Z,100.00
2023-03-25T00:41:17.782Z,100.00
2023-03-25T00:46:29.188Z,100.00
2023-03-25T00:51:34.577Z,100.00
2023-03-25T00:56:39.788Z,100.00
2023-03-25T01:01:47.612Z,100.00
2023-03-25T01:06:55.333Z,100.00
2023-03-25T01:12:01.003Z,100.00
2023-03-25T01:17:08.955Z,100.00
2023-03-25T01:22:15.483Z,100.00
2023-03-25T01:27:26.799Z,100.00
2023-03-25T01:32:34.883Z,100.00
2023-03-25T01:37:40.105Z,100.00
2023-03-25T01:42:49.653Z,100.00
2023-03-25T01:48:04.764Z,100.00
2023-03-25T01:53:11.973Z,100.00
2023-03-25T01:58:21.073Z,100.00
2023-03-25T02:03:29.686Z,100.00
2023-03-25T02:08:41.106Z,100.00
2023-03-25T02:13:49.477Z,98.91
2023-03-25T02:19:12.750Z,99.38
2023-03-25T02:25:02.202Z,99.82
2023-03-25T02:30:37.570Z,100.00
2023-03-25T02:36:04.027Z,100.00
2023-03-25T02:41:19.624Z,100.00
2023-03-25T02:46:27.643Z,99.32
2023-03-25T02:51:38.550Z,99.18
2023-03-25T02:56:49.889Z,98.81
2023-03-25T03:02:04.286Z,98.86
2023-03-25T03:07:09.535Z,98.54
2023-03-25T03:12:44.230Z,98.34
2023-03-25T03:18:03.577Z,98.36
2023-03-25T03:23:13.810Z,98.53
2023-03-25T03:28:30.071Z,97.97
2023-03-25T03:33:43.218Z,98.18
2023-03-25T03:38:52.406Z,98.34
2023-03-25T03:44:05.545Z,97.59
2023-03-25T03:49:17.295Z,97.52
2023-03-25T03:54:25.819Z,96.76
2023-03-25T03:59:40.525Z,97.46
2023-03-25T04:04:45.691Z,96.92
2023-03-25T04:09:58.005Z,96.96
2023-03-25T04:15:07.728Z,97.25
2023-03-25T04:20:16.568Z,97.30
2023-03-25T04:25:26.460Z,96.51
2023-03-25T04:30:34.100Z,96.63
2023-03-25T04:35:39.314Z,95.66
2023-03-25T04:40:46.881Z,96.00
2023-03-25T04:45:55.808Z,95.87
2023-03-25T04:51:03.751Z,95.39
2023-03-25T04:56:13.260Z,95.66
2023-03-25T05:01:31.105Z,95.12
2023-03-25T05:06:38.581Z,95.33
2023-03-25T05:11:43.982Z,96.45
2023-03-25T05:16:52.224Z,95.93
2023-03-25T05:22:00.572Z,96.14
2023-03-25T05:27:06.030Z,95.51
2023-03-25T05:32:13.954Z,94.89
2023-03-25T05:37:19.823Z,94.54
2023-03-25T05:42:25.636Z,94.61
2023-03-25T05:47:33.697Z,93.70
2023-03-25T05:52:42.145Z,91.60
2023-03-25T05:57:48.004Z,90.03
2023-03-25T06:02:55.796Z,86.16
2023-03-25T06:08:02.488Z,88.14
2023-03-25T06:13:08.078Z,88.19
2023-03-25T06:18:17.544Z,86.01
2023-03-25T06:23:24.040Z,84.94
2023-03-25T06:28:29.386Z,86.77
2023-03-25T06:33:42.902Z,85.56
2023-03-25T06:38:52.490Z,86.30
2023-03-25T06:44:03.817Z,78.55
2023-03-25T06:49:26.959Z,65.77
2023-03-25T06:54:33.987Z,63.35
2023-03-25T06:59:39.098Z,63.67
2023-03-25T07:04:47.076Z,60.41
2023-03-25T07:09:56.125Z,66.40
2023-03-25T07:15:01.136Z,67.07
2023-03-25T07:20:17.302Z,65.72
2023-03-25T07:25:22.787Z,68.87
2023-03-25T07:30:28.201Z,66.75
2023-03-25T07:35:36.333Z,71.38
2023-03-25T07:40:41.700Z,67.18
2023-03-25T07:45:46.860Z,66.66
2023-03-25T07:50:56.308Z,72.01
2023-03-25T07:56:01.245Z,74.86
2023-03-25T08:01:06.811Z,74.30
2023-03-25T08:06:17.664Z,76.17
2023-03-25T08:11:24.204Z,77.59
2023-03-25T08:16:30.000Z,79.14
2023-03-25T08:21:40.582Z,78.99
2023-03-25T08:26:48.214Z,81.40
2023-03-25T08:31:54.006Z,85.12
2023-03-25T08:37:02.089Z,88.79
2023-03-25T08:42:07.428Z,95.70
2023-03-25T08:47:15.030Z,99.46
2023-03-25T08:52:24.301Z,100.00
2023-03-25T08:57:29.496Z,100.00
2023-03-25T09:02:34.833Z,100.00
2023-03-25T09:07:43.266Z,100.00
2023-03-25T09:12:48.512Z,100.00
2023-03-25T09:17:55.583Z,100.00
2023-03-25T09:23:03.218Z,100.00
2023-03-25T09:28:08.756Z,100.00
2023-03-25T09:33:14.437Z,100.00
2023-03-25T09:38:22.931Z,100.00
2023-03-25T09:43:36.149Z,100.00
2023-03-25T09:48:45.821Z,100.00
2023-03-25T09:54:04.446Z,100.00
2023-03-25T09:59:16.978Z,100.00
2023-03-25T10:04:55.705Z,100.00
2023-03-25T10:10:11.168Z,100.00
2023-03-25T10:15:33.940Z,100.00
2023-03-25T10:20:49.166Z,100.00
2023-03-25T10:26:02.927Z,100.00
2023-03-25T10:31:09.995Z,100.00
2023-03-25T10:36:23.875Z,100.00
2023-03-25T10:41:35.786Z,97.67
2023-03-25T10:46:47.904Z,99.07
2023-03-25T10:51:57.752Z,98.70
2023-03-25T10:57:08.366Z,97.98
2023-03-25T11:02:18.816Z,98.38
2023-03-25T11:07:32.006Z,100.00
2023-03-25T11:12:43.207Z,100.00
2023-03-25T11:17:53.256Z,100.00
2023-03-25T11:23:10.867Z,100.00
2023-03-25T11:28:29.021Z,100.00
2023-03-25T11:33:34.654Z,100.00
2023-03-25T11:38:43.292Z,100.00
2023-03-25T11:43:52.839Z,100.00
2023-03-25T11:49:00.109Z,100.00
2023-03-25T11:54:11.282Z,100.00
2023-03-25T11:59:27.332Z,100.00
2023-03-25T12:04:34.191Z,100.00
2023-03-25T12:09:55.962Z,100.00
2023-03-25T12:15:18.303Z,100.00
2023-03-25T12:20:33.041Z,100.00
2023-03-25T12:25:53.960Z,95.21
2023-03-25T12:31:11.787Z,93.45
2023-03-25T12:36:39.012Z,92.43
2023-03-25T12:41:54.813Z,95.54
2023-03-25T12:47:28.091Z,93.19
2023-03-25T12:52:45.005Z,92.73
2023-03-25T12:58:04.493Z,89.33
2023-03-25T13:03:48.632Z,90.60
2023-03-25T13:09:00.926Z,98.36
2023-03-25T13:14:15.572Z,100.00
2023-03-25T13:19:28.089Z,90.18
2023-03-25T13:24:43.329Z,91.95
2023-03-25T13:29:54.931Z,84.34
2023-03-25T13:35:07.384Z,83.93
2023-03-25T13:40:27.342Z,81.94
2023-03-25T13:45:38.424Z,77.92
2023-03-25T13:50:46.946Z,77.23
2023-03-25T13:56:15.991Z,79.01
2023-03-25T14:02:01.458Z,77.04
2023-03-25T14:07:34.414Z,78.22
2023-03-25T14:12:44.438Z,76.62
2023-03-25T14:17:51.317Z,75.30
2023-03-25T14:23:05.674Z,76.39
2023-03-25T14:28:17.034Z,75.32
2023-03-25T14:33:23.289Z,73.00
2023-03-25T14:38:58.034Z,71.00
2023-03-25T14:44:21.686Z,72.35
2023-03-25T14:49:30.397Z,73.19
2023-03-25T14:54:37.577Z,79.49
2023-03-25T14:59:48.617Z,96.64
2023-03-25T15:05:00.798Z,100.00
2023-03-25T15:10:09.416Z,100.00
2023-03-25T15:15:34.178Z,100.00
2023-03-25T15:20:39.245Z,100.00
2023-03-25T15:25:52.389Z,100.00
2023-03-25T15:31:32.115Z,100.00
2023-03-25T15:37:05.816Z,100.00
2023-03-25T15:42:29.701Z,100.00
2023-03-25T15:48:10.908Z,98.60
2023-03-25T15:53:46.883Z,96.30
2023-03-25T15:58:58.004Z,94.15
2023-03-25T16:04:10.305Z,94.25
2023-03-25T16:09:20.492Z,93.76
2023-03-25T16:14:26.088Z,94.46
2023-03-25T16:19:41.701Z,92.43
2023-03-25T16:24:48.046Z,90.65
2023-03-25T16:29:59.367Z,89.08
2023-03-25T16:35:09.103Z,86.99
2023-03-25T16:40:25.798Z,87.72
2023-03-25T16:45:31.005Z,88.21
2023-03-25T16:50:39.605Z,87.04
2023-03-25T16:55:50.256Z,88.61
2023-03-25T17:00:57.394Z,89.27
2023-03-25T17:06:11.341Z,89.65
2023-03-25T17:11:16.688Z,88.60
2023-03-25T17:16:23.685Z,88.07
2023-03-25T17:21:39.165Z,88.00
2023-03-25T17:26:58.467Z,88.09
2023-03-25T17:32:04.690Z,86.71
2023-03-25T17:37:16.706Z,87.98
2023-03-25T17:42:27.047Z,87.49
2023-03-25T17:47:34.604Z,87.12
2023-03-25T17:52:42.488Z,87.54
2023-03-25T17:57:49.958Z,88.28
2023-03-25T18:02:56.272Z,89.30
2023-03-25T18:08:06.326Z,89.40
2023-03-25T18:13:14.030Z,89.74
2023-03-25T18:18:24.407Z,90.26
2023-03-25T18:23:32.830Z,90.11
2023-03-25T18:28:37.900Z,91.24
2023-03-25T18:33:42.937Z,91.19
2023-03-25T18:38:54.533Z,91.53
2023-03-25T18:43:59.553Z,90.56
2023-03-25T18:49:05.351Z,90.82
2023-03-25T18:54:13.360Z,90.73
2023-03-25T18:59:21.764Z,89.03
2023-03-25T19:04:27.428Z,89.97
2023-03-25T19:09:37.598Z,90.93
2023-03-25T19:14:44.976Z,94.83
2023-03-25T19:19:50.059Z,94.09
2023-03-25T19:24:58.063Z,93.75
2023-03-25T19:30:03.274Z,94.01
2023-03-25T19:35:10.651Z,93.42
2023-03-25T19:40:20.497Z,93.20
2023-03-25T19:45:26.950Z,93.95
2023-03-25T19:50:33.429Z,93.69
2023-03-25T19:55:46.322Z,92.98
2023-03-25T20:00:52.051Z,93.69
2023-03-25T20:05:59.958Z,96.29
2023-03-25T20:11:13.933Z,95.60
2023-03-25T20:16:22.071Z,94.95
2023-03-25T20:21:27.489Z,95.94
2023-03-25T20:26:35.460Z,94.73
2023-03-25T20:31:40.942Z,93.62
2023-03-25T20:36:52.429Z,93.51
2023-03-25T20:42:00.301Z,92.82
2023-03-25T20:47:13.469Z,92.27
2023-03-25T20:52:18.582Z,91.22
2023-03-25T20:57:29.021Z,92.50
2023-03-25T21:02:34.524Z,94.04
2023-03-25T21:07:41.412Z,95.57
2023-03-25T21:12:49.383Z,96.04
2023-03-25T21:17:54.367Z,97.20
2023-03-25T21:23:02.792Z,97.25
2023-03-25T21:28:10.580Z,97.09
2023-03-25T21:33:16.682Z,98.58
2023-03-25T21:38:29.123Z,98.88
2023-03-25T21:43:39.931Z,98.61
2023-03-25T21:48:46.976Z,98.65
2023-03-25T21:53:54.334Z,98.84
2023-03-25T21:59:03.634Z,99.64
2023-03-25T22:04:08.736Z,98.83
2023-03-25T22:09:15.985Z,98.37
2023-03-25T22:14:25.280Z,97.92
2023-03-25T22:19:31.300Z,98.53
2023-03-25T22:24:36.333Z,97.69
2023-03-25T22:29:47.107Z,97.23
2023-03-25T22:34:52.369Z,97.11
2023-03-25T22:39:57.572Z,95.53
2023-03-25T22:45:09.289Z,95.37
2023-03-25T22:50:18.167Z,94.69
2023-03-25T22:55:27.275Z,94.33
2023-03-25T23:00:35.114Z,94.69
2023-03-25T23:05:40.647Z,94.46
2023-03-25T23:10:46.937Z,94.24
2023-03-25T23:16:00.217Z,93.76
2023-03-25T23:21:06.088Z,95.22
2023-03-25T23:26:14.929Z,94.28
2023-03-25T23:31:28.160Z,96.61
2023-03-25T23:36:36.665Z,98.61
2023-03-25T23:41:41.939Z,100.00
2023-03-25T23:46:52.207Z,100.00
2023-03-25T23:51:57.810Z,100.00
2023-03-25T23:57:03.224Z,100.00
